createdAt,value
2022-10-21T00:00:43.847Z,96.00
2022-10-21T00:03:11.648Z,96.20
2022-10-21T00:05:39.403Z,96.50
2022-10-21T00:08:07.224Z,96.80
2022-10-21T00:10:35.011Z,96.40
2022-10-21T00:13:04.200Z,96.20
2022-10-21T00:15:31.990Z,96.30
2022-10-21T00:18:00.218Z,96.40
2022-10-21T00:20:27.977Z,96.60
2022-10-21T00:22:55.772Z,96.50
2022-10-21T00:25:23.562Z,96.90
2022-10-21T00:27:51.377Z,97.00
2022-10-21T00:30:20.574Z,96.80
2022-10-21T00:32:48.344Z,96.40
2022-10-21T00:35:16.296Z,96.80
2022-10-21T00:37:44.096Z,96.70
2022-10-21T00:40:12.201Z,96.80
2022-10-21T00:42:44.023Z,96.70
2022-10-21T00:45:22.203Z,96.80
2022-10-21T00:47:54.820Z,96.70
2022-10-21T00:50:31.139Z,96.90
2022-10-21T00:53:00.986Z,97.20
2022-10-21T00:55:32.532Z,97.10
2022-10-21T00:58:01.512Z,97.00
2022-10-21T01:00:30.755Z,97.60
2022-10-21T01:02:59.066Z,97.30
2022-10-21T01:05:27.544Z,97.30
2022-10-21T01:07:55.670Z,97.90
2022-10-21T01:10:23.517Z,97.60
2022-10-21T01:13:06.334Z,97.50
2022-10-21T01:15:41.859Z,97.30
2022-10-21T01:18:19.030Z,97.60
2022-10-21T01:21:03.220Z,97.60
2022-10-21T01:27:01.670Z,97.80
2022-10-21T01:29:45.814Z,98.00
2022-10-21T01:32:23.523Z,98.00
2022-10-21T01:34:58.074Z,98.10
2022-10-21T01:37:33.483Z,98.30
2022-10-21T01:40:08.785Z,98.20
2022-10-21T01:42:42.410Z,98.70
2022-10-21T01:45:15.433Z,98.70
2022-10-21T01:47:49.386Z,98.80
2022-10-21T01:50:21.128Z,98.90
2022-10-21T01:52:52.707Z,98.70
2022-10-21T01:55:22.476Z,98.80
2022-10-21T01:57:53.661Z,98.90
2022-10-21T02:00:21.636Z,98.80
2022-10-21T02:02:51.040Z,98.40
2022-10-21T02:05:21.490Z,99.00
2022-10-21T02:07:50.275Z,99.50
2022-10-21T02:10:19.456Z,99.90
2022-10-21T02:12:50.394Z,99.90
2022-10-21T02:15:20.294Z,99.90
2022-10-21T02:17:55.455Z,99.90
2022-10-21T02:20:27.113Z,99.90
2022-10-21T02:22:55.407Z,99.90
2022-10-21T02:25:26.510Z,99.90
2022-10-21T02:27:55.288Z,99.90
2022-10-21T02:30:23.468Z,99.90
2022-10-21T02:32:58.211Z,99.90
2022-10-21T02:35:35.000Z,99.90
2022-10-21T02:38:08.254Z,99.90
2022-10-21T02:40:38.901Z,99.90
2022-10-21T02:43:11.221Z,99.90
2022-10-21T02:45:40.626Z,99.90
2022-10-21T02:48:09.753Z,99.90
2022-10-21T02:50:37.531Z,99.90
2022-10-21T02:53:05.410Z,99.90
2022-10-21T02:55:33.178Z,99.90
2022-10-21T02:58:00.943Z,99.90
2022-10-21T03:00:32.057Z,99.90
2022-10-21T03:03:01.144Z,99.90
2022-10-21T03:08:03.011Z,99.90
2022-10-21T03:10:30.924Z,99.90
2022-10-21T03:12:58.747Z,99.90
2022-10-21T03:15:26.711Z,99.90
2022-10-21T03:17:54.729Z,99.90
2022-10-21T03:20:22.523Z,99.90
2022-10-21T03:22:51.700Z,99.90
2022-10-21T03:25:19.529Z,99.90
2022-10-21T03:27:50.778Z,99.90
2022-10-21T03:30:18.839Z,99.90
2022-10-21T03:32:46.647Z,99.90
2022-10-21T03:35:15.095Z,99.90
2022-10-21T03:37:42.901Z,99.90
2022-10-21T03:40:12.776Z,99.90
2022-10-21T03:42:40.977Z,99.90
2022-10-21T03:45:10.112Z,99.90
2022-10-21T03:47:37.910Z,99.90
2022-10-21T03:50:10.158Z,99.90
2022-10-21T03:52:41.312Z,99.90
2022-10-21T03:55:09.564Z,99.90
2022-10-21T03:57:39.304Z,99.90
2022-10-21T04:00:08.775Z,99.90
2022-10-21T04:02:42.920Z,99.90
2022-10-21T04:05:11.211Z,99.90
2022-10-21T04:07:39.411Z,99.90
2022-10-21T04:10:08.727Z,99.90
2022-10-21T04:12:38.397Z,99.90
2022-10-21T04:15:07.520Z,99.90
2022-10-21T04:17:35.349Z,99.90
2022-10-21T04:20:03.193Z,99.80
2022-10-21T04:22:30.973Z,99.90
2022-10-21T04:25:00.948Z,99.90
2022-10-21T04:27:31.857Z,99.90
2022-10-21T04:30:00.987Z,99.90
2022-10-21T04:32:28.769Z,99.90
2022-10-21T04:34:56.564Z,99.90
2022-10-21T04:37:24.337Z,99.90
2022-10-21T04:39:52.162Z,99.90
2022-10-21T04:42:20.004Z,99.90
2022-10-21T04:44:47.803Z,99.90
2022-10-21T04:47:16.913Z,99.90
2022-10-21T04:49:44.686Z,99.90
2022-10-21T04:52:13.318Z,99.90
2022-10-21T04:54:41.098Z,99.90
2022-10-21T04:57:08.903Z,99.90
2022-10-21T04:59:36.848Z,99.90
2022-10-21T05:02:04.924Z,99.90
2022-10-21T05:04:34.464Z,99.90
2022-10-21T05:07:02.224Z,99.90
2022-10-21T05:09:30.026Z,99.90
2022-10-21T05:11:58.050Z,99.90
2022-10-21T05:14:25.836Z,99.90
2022-10-21T05:16:53.610Z,99.90
2022-10-21T05:19:21.480Z,99.90
2022-10-21T05:21:50.572Z,99.90
2022-10-21T05:24:19.448Z,99.90
2022-10-21T05:26:47.223Z,99.90
2022-10-21T05:29:15.008Z,99.90
2022-10-21T05:31:42.860Z,99.90
2022-10-21T05:34:10.741Z,99.90
2022-10-21T05:36:38.936Z,99.90
2022-10-21T05:39:11.256Z,99.90
2022-10-21T05:41:41.035Z,99.90
2022-10-21T05:44:10.828Z,99.90
2022-10-21T05:46:38.704Z,99.90
2022-10-21T05:49:06.831Z,99.90
2022-10-21T05:51:34.610Z,99.90
2022-10-21T05:54:03.705Z,99.90
2022-10-21T05:56:33.177Z,99.90
2022-10-21T05:59:00.946Z,99.90
2022-10-21T06:01:28.841Z,99.90
2022-10-21T06:03:56.677Z,99.90
2022-10-21T06:06:24.452Z,99.90
2022-10-21T06:08:52.335Z,99.90
2022-10-21T06:11:20.928Z,99.90
2022-10-21T06:13:50.076Z,99.90
2022-10-21T06:16:18.191Z,99.90
2022-10-21T06:18:46.024Z,99.90
2022-10-21T06:21:13.971Z,99.90
2022-10-21T06:23:41.981Z,99.90
2022-10-21T06:26:12.924Z,99.90
2022-10-21T06:28:43.624Z,99.90
2022-10-21T06:31:15.112Z,99.90
2022-10-21T06:33:42.918Z,99.90
2022-10-21T06:36:11.164Z,99.90
2022-10-21T06:38:38.994Z,99.90
2022-10-21T06:41:12.196Z,99.90
2022-10-21T06:43:43.006Z,99.90
2022-10-21T06:46:14.333Z,99.90
2022-10-21T06:48:42.405Z,99.90
2022-10-21T06:51:12.928Z,99.90
2022-10-21T06:53:40.755Z,99.50
2022-10-21T06:56:10.502Z,99.20
2022-10-21T06:58:39.297Z,99.30
2022-10-21T07:01:21.429Z,99.70
2022-10-21T07:04:00.826Z,99.80
2022-10-21T07:06:28.665Z,99.60
2022-10-21T07:08:58.783Z,99.90
2022-10-21T07:11:27.562Z,99.10
2022-10-21T07:13:55.616Z,99.10
2022-10-21T07:16:26.216Z,99.00
2022-10-21T07:18:55.028Z,99.00
2022-10-21T07:21:26.110Z,98.70
2022-10-21T07:23:57.807Z,99.10
2022-10-21T07:26:28.757Z,98.60
2022-10-21T07:28:58.442Z,99.10
2022-10-21T07:31:26.978Z,99.80
2022-10-21T07:33:54.831Z,98.80
2022-10-21T07:36:26.534Z,99.20
2022-10-21T07:38:55.389Z,99.00
2022-10-21T07:41:26.054Z,98.90
2022-10-21T07:43:54.789Z,98.80
2022-10-21T07:46:23.283Z,98.80
2022-10-21T07:48:52.009Z,98.70
2022-10-21T07:51:26.864Z,98.90
2022-10-21T07:53:59.679Z,98.70
2022-10-21T07:56:29.502Z,99.00
2022-10-21T07:58:57.560Z,98.40
2022-10-21T08:01:26.021Z,98.50
2022-10-21T08:03:54.579Z,98.90
2022-10-21T08:06:23.646Z,98.80
2022-10-21T08:08:51.493Z,99.20
2022-10-21T08:11:24.592Z,98.70
2022-10-21T08:13:52.499Z,98.60
2022-10-21T08:16:20.280Z,99.00
2022-10-21T08:18:48.518Z,98.40
2022-10-21T08:21:16.531Z,98.50
2022-10-21T08:23:44.765Z,98.50
2022-10-21T08:26:15.893Z,98.80
2022-10-21T08:28:45.677Z,99.10
2022-10-21T08:31:15.879Z,99.10
2022-10-21T08:33:43.732Z,99.40
2022-10-21T08:36:15.508Z,99.80
2022-10-21T08:38:43.642Z,99.90
2022-10-21T08:41:18.922Z,99.90
2022-10-21T08:43:48.821Z,99.90
2022-10-21T08:46:20.128Z,99.90
2022-10-21T08:48:52.307Z,99.90
2022-10-21T08:51:27.681Z,99.90
2022-10-21T08:53:59.113Z,99.90
2022-10-21T08:56:27.925Z,99.90
2022-10-21T08:58:57.064Z,99.90
2022-10-21T09:01:29.883Z,99.90
2022-10-21T09:04:05.987Z,99.90
2022-10-21T09:06:41.089Z,99.90
2022-10-21T09:09:17.416Z,99.90
2022-10-21T09:11:58.787Z,99.90
2022-10-21T09:15:00.347Z,99.90
2022-10-21T09:18:10.007Z,99.90
2022-10-21T09:20:54.955Z,99.90
2022-10-21T09:23:55.049Z,99.90
2022-10-21T09:26:40.045Z,99.90
2022-10-21T09:29:26.868Z,99.90
2022-10-21T09:32:02.625Z,99.90
2022-10-21T09:34:43.679Z,99.90
2022-10-21T09:37:21.153Z,99.90
2022-10-21T09:39:55.095Z,99.90
2022-10-21T09:42:45.833Z,99.90
2022-10-21T09:45:23.825Z,99.90
2022-10-21T09:47:59.230Z,99.90
2022-10-21T09:50:29.074Z,99.90
2022-10-21T09:53:05.727Z,99.90
2022-10-21T09:55:34.525Z,99.90
2022-10-21T09:58:05.696Z,99.90
2022-10-21T10:00:48.901Z,99.90
2022-10-21T10:03:36.387Z,99.90
2022-10-21T10:06:06.160Z,99.90
2022-10-21T10:08:37.388Z,99.90
2022-10-21T10:11:18.007Z,99.90
2022-10-21T10:13:47.706Z,99.90
2022-10-21T10:16:22.124Z,99.90
2022-10-21T10:18:52.677Z,99.90
2022-10-21T10:21:21.512Z,99.90
2022-10-21T10:23:51.499Z,99.90
2022-10-21T10:26:23.612Z,99.90
2022-10-21T10:28:54.974Z,99.90
2022-10-21T10:31:33.548Z,99.90
2022-10-21T10:34:05.838Z,99.90
2022-10-21T10:36:37.647Z,99.90
2022-10-21T10:39:08.664Z,99.90
2022-10-21T10:41:40.009Z,99.90
2022-10-21T10:44:17.690Z,99.90
2022-10-21T10:46:45.681Z,99.90
2022-10-21T10:49:22.972Z,99.90
2022-10-21T10:52:06.414Z,99.90
2022-10-21T10:54:35.205Z,99.90
2022-10-21T10:57:06.982Z,99.90
2022-10-21T10:59:41.107Z,99.90
2022-10-21T11:02:26.865Z,99.90
2022-10-21T11:05:18.879Z,99.90
2022-10-21T11:07:50.642Z,99.90
2022-10-21T11:10:33.594Z,99.90
2022-10-21T11:13:02.891Z,99.90
2022-10-21T11:15:49.686Z,99.90
2022-10-21T11:18:25.086Z,99.90
2022-10-21T11:21:05.767Z,99.90
2022-10-21T11:24:00.101Z,99.90
2022-10-21T11:26:35.017Z,99.90
2022-10-21T11:29:14.868Z,99.90
2022-10-21T11:32:10.678Z,99.90
2022-10-21T11:34:54.325Z,99.90
2022-10-21T11:37:31.021Z,99.90
2022-10-21T11:40:04.401Z,99.90
2022-10-21T11:42:41.227Z,99.90
2022-10-21T11:45:34.566Z,99.90
2022-10-21T11:48:15.268Z,99.90
2022-10-21T11:50:56.207Z,99.90
2022-10-21T11:53:39.232Z,99.90
2022-10-21T11:56:20.827Z,99.90
2022-10-21T11:59:00.425Z,99.90
2022-10-21T12:01:37.904Z,99.90
2022-10-21T12:04:21.471Z,99.90
2022-10-21T12:06:57.327Z,99.90
2022-10-21T12:09:31.721Z,99.90
2022-10-21T12:12:05.718Z,99.90
2022-10-21T12:14:37.107Z,99.90
2022-10-21T12:17:09.801Z,99.90
2022-10-21T12:19:38.145Z,99.90
2022-10-21T12:22:06.648Z,99.90
2022-10-21T12:24:47.659Z,99.90
2022-10-21T12:27:23.823Z,99.90
2022-10-21T12:30:05.128Z,99.90
2022-10-21T12:32:43.697Z,99.90
2022-10-21T12:35:15.388Z,99.90
2022-10-21T12:37:46.452Z,99.90
2022-10-21T12:40:18.240Z,99.90
2022-10-21T12:42:48.443Z,99.90
2022-10-21T12:45:31.094Z,99.90
2022-10-21T12:47:59.441Z,99.90
2022-10-21T12:50:30.206Z,99.90
2022-10-21T12:53:08.534Z,99.90
2022-10-21T12:55:41.029Z,99.90
2022-10-21T12:58:23.987Z,99.90
2022-10-21T13:00:57.899Z,99.90
2022-10-21T13:03:51.885Z,99.90
2022-10-21T13:06:52.957Z,99.90
2022-10-21T13:09:40.018Z,99.90
2022-10-21T13:12:29.408Z,99.90
2022-10-21T13:14:58.984Z,99.90
2022-10-21T13:17:51.766Z,99.90
2022-10-21T13:20:49.284Z,99.90
2022-10-21T13:23:41.416Z,99.90
2022-10-21T13:26:25.490Z,99.90
2022-10-21T13:29:03.033Z,99.90
2022-10-21T13:31:31.098Z,99.90
2022-10-21T13:33:59.198Z,99.90
2022-10-21T13:39:20.298Z,99.90
2022-10-21T13:41:56.339Z,99.90
2022-10-21T13:44:29.669Z,99.90
2022-10-21T13:46:58.387Z,99.90
2022-10-21T13:49:30.782Z,99.90
2022-10-21T13:51:58.908Z,99.90
2022-10-21T13:54:34.799Z,99.90
2022-10-21T13:57:07.147Z,99.90
2022-10-21T13:59:34.931Z,99.90
2022-10-21T14:02:03.575Z,99.90
2022-10-21T14:04:33.130Z,99.90
2022-10-21T14:07:03.626Z,99.90
2022-10-21T14:09:35.424Z,99.90
2022-10-21T14:12:06.804Z,99.90
2022-10-21T14:14:37.822Z,99.90
2022-10-21T14:17:08.075Z,99.90
2022-10-21T14:19:39.257Z,99.90
2022-10-21T14:22:10.208Z,99.90
2022-10-21T14:24:42.844Z,99.90
2022-10-21T14:27:15.095Z,99.90
2022-10-21T14:29:44.407Z,99.90
2022-10-21T14:32:15.161Z,99.90
2022-10-21T14:35:00.471Z,99.90
2022-10-21T14:37:34.847Z,99.90
2022-10-21T14:40:20.059Z,99.90
2022-10-21T14:42:52.377Z,99.90
2022-10-21T14:45:26.328Z,99.90
2022-10-21T14:48:00.348Z,99.90
2022-10-21T14:50:28.496Z,99.90
2022-10-21T14:52:56.385Z,99.90
2022-10-21T14:55:29.945Z,99.90
2022-10-21T14:58:08.534Z,99.90
2022-10-21T15:00:41.385Z,99.90
2022-10-21T15:03:10.935Z,99.90
2022-10-21T15:05:44.120Z,99.90
2022-10-21T15:08:32.002Z,99.90
2022-10-21T15:11:23.180Z,99.90
2022-10-21T15:14:06.845Z,99.90
2022-10-21T15:19:13.428Z,99.90
2022-10-21T15:21:48.723Z,99.90
2022-10-21T15:24:20.317Z,99.90
2022-10-21T15:26:51.715Z,99.90
2022-10-21T15:29:27.322Z,99.90
2022-10-21T15:31:57.088Z,99.90
2022-10-21T15:34:25.289Z,99.90
2022-10-21T15:36:53.248Z,99.90
2022-10-21T15:39:21.473Z,99.90
2022-10-21T15:41:53.655Z,99.90
2022-10-21T15:44:23.544Z,99.90
2022-10-21T15:46:57.544Z,99.90
2022-10-21T15:49:27.475Z,99.90
2022-10-21T15:51:55.508Z,99.90
2022-10-21T15:54:23.414Z,99.90
2022-10-21T15:56:54.411Z,99.90
2022-10-21T15:59:25.235Z,99.90
2022-10-21T16:01:53.936Z,99.90
2022-10-21T16:04:22.083Z,99.90
2022-10-21T16:06:50.756Z,99.90
2022-10-21T16:09:21.745Z,99.90
2022-10-21T16:12:06.055Z,99.90
2022-10-21T16:14:35.187Z,99.90
2022-10-21T16:17:03.115Z,99.90
2022-10-21T16:19:30.912Z,99.90
2022-10-21T16:21:58.716Z,99.90
2022-10-21T16:24:26.508Z,99.90
2022-10-21T16:26:54.303Z,99.90
2022-10-21T16:29:24.533Z,99.90
2022-10-21T16:31:53.957Z,99.90
2022-10-21T16:34:21.956Z,99.90
2022-10-21T16:36:49.722Z,99.90
2022-10-21T16:39:19.076Z,99.90
2022-10-21T16:41:46.966Z,99.90
2022-10-21T16:44:14.743Z,99.90
2022-10-21T16:46:47.411Z,99.90
2022-10-21T16:49:20.593Z,99.90
2022-10-21T16:51:48.391Z,99.90
2022-10-21T16:54:17.115Z,99.90
2022-10-21T16:56:44.891Z,99.90
2022-10-21T16:59:12.907Z,99.90
2022-10-21T17:01:40.913Z,99.90
2022-10-21T17:04:09.153Z,99.90
2022-10-21T17:06:38.284Z,99.90
2022-10-21T17:09:06.350Z,99.90
2022-10-21T17:11:36.068Z,99.90
2022-10-21T17:14:05.608Z,99.90
2022-10-21T17:16:33.768Z,99.90
2022-10-21T17:19:01.541Z,99.90
2022-10-21T17:21:31.104Z,99.90
2022-10-21T17:24:02.050Z,99.90
2022-10-21T17:26:30.906Z,99.90
2022-10-21T17:28:58.910Z,99.90
2022-10-21T17:31:30.604Z,99.90
2022-10-21T17:34:02.074Z,99.90
2022-10-21T17:36:29.930Z,99.90
2022-10-21T17:38:57.740Z,99.90
2022-10-21T17:41:27.072Z,99.90
2022-10-21T17:43:55.660Z,99.90
2022-10-21T17:46:25.564Z,99.90
2022-10-21T17:48:54.575Z,99.90
2022-10-21T17:51:24.144Z,99.90
2022-10-21T17:53:53.344Z,99.90
2022-10-21T17:56:21.989Z,99.90
2022-10-21T17:58:53.722Z,99.90
2022-10-21T18:01:22.929Z,99.90
2022-10-21T18:03:50.960Z,99.90
2022-10-21T18:06:21.159Z,99.90
2022-10-21T18:08:49.397Z,99.90
2022-10-21T18:11:18.784Z,99.90
2022-10-21T18:13:50.785Z,99.90
2022-10-21T18:16:24.719Z,99.90
2022-10-21T18:18:56.088Z,99.90
2022-10-21T18:21:26.568Z,99.90
2022-10-21T18:23:54.950Z,99.90
2022-10-21T18:26:25.834Z,99.90
2022-10-21T18:28:56.935Z,99.90
2022-10-21T18:31:28.039Z,99.90
2022-10-21T18:33:56.566Z,99.90
2022-10-21T18:36:25.254Z,99.90
2022-10-21T18:38:53.423Z,99.90
2022-10-21T18:41:22.120Z,99.90
2022-10-21T18:43:51.531Z,99.90
2022-10-21T18:46:19.787Z,99.40
2022-10-21T18:48:48.965Z,97.20
2022-10-21T18:51:22.585Z,95.80
2022-10-21T18:53:53.116Z,94.90
2022-10-21T18:56:22.899Z,94.30
2022-10-21T18:58:51.092Z,93.90
2022-10-21T19:01:20.043Z,93.50
2022-10-21T19:03:50.701Z,93.20
2022-10-21T19:06:20.630Z,93.00
2022-10-21T19:08:48.445Z,92.90
2022-10-21T19:11:16.268Z,92.70
2022-10-21T19:13:44.073Z,92.50
2022-10-21T19:16:11.860Z,92.50
2022-10-21T19:18:39.713Z,92.40
2022-10-21T19:21:08.892Z,92.30
2022-10-21T19:23:36.667Z,92.20
2022-10-21T19:26:05.479Z,92.10
2022-10-21T19:28:33.887Z,92.00
2022-10-21T19:31:02.004Z,91.90
2022-10-21T19:33:30.800Z,91.80
2022-10-21T19:36:00.432Z,91.80
2022-10-21T19:38:43.561Z,91.80
2022-10-21T19:41:13.421Z,91.80
2022-10-21T19:43:41.315Z,91.80
2022-10-21T19:46:09.734Z,91.80
2022-10-21T19:48:37.792Z,91.50
2022-10-21T19:51:06.204Z,91.30
2022-10-21T19:53:35.449Z,91.10
2022-10-21T19:56:04.135Z,90.90
2022-10-21T19:58:32.558Z,90.90
2022-10-21T20:01:04.612Z,90.80
2022-10-21T20:03:32.733Z,90.80
2022-10-21T20:06:00.484Z,90.70
2022-10-21T20:08:28.283Z,90.60
2022-10-21T20:11:01.830Z,90.50
2022-10-21T20:13:30.366Z,90.40
2022-10-21T20:15:58.403Z,90.30
2022-10-21T20:18:27.594Z,90.30
2022-10-21T20:20:55.888Z,90.20
2022-10-21T20:23:24.375Z,90.20
2022-10-21T20:25:54.519Z,90.20
2022-10-21T20:28:24.420Z,90.20
2022-10-21T20:30:59.729Z,90.20
2022-10-21T20:33:28.450Z,90.20
2022-10-21T20:35:56.278Z,90.00
2022-10-21T20:38:24.569Z,90.10
2022-10-21T20:40:58.906Z,90.10
2022-10-21T20:43:28.024Z,90.10
2022-10-21T20:45:55.892Z,90.00
2022-10-21T20:48:23.723Z,90.00
2022-10-21T20:50:52.090Z,90.00
2022-10-21T20:53:19.867Z,90.00
2022-10-21T20:55:54.689Z,89.90
2022-10-21T20:58:22.620Z,89.80
2022-10-21T21:00:51.753Z,89.80
2022-10-21T21:03:20.093Z,89.80
2022-10-21T21:05:47.866Z,89.70
2022-10-21T21:08:15.664Z,90.10
2022-10-21T21:10:43.496Z,90.20
2022-10-21T21:13:11.315Z,90.20
2022-10-21T21:15:39.075Z,90.10
2022-10-21T21:18:11.436Z,90.00
2022-10-21T21:20:39.203Z,90.00
2022-10-21T21:23:06.975Z,90.00
2022-10-21T21:25:34.760Z,89.90
2022-10-21T21:28:02.514Z,90.00
2022-10-21T21:30:30.299Z,89.80
2022-10-21T21:32:58.113Z,89.80
2022-10-21T21:35:27.251Z,89.80
2022-10-21T21:37:55.012Z,89.80
2022-10-21T21:40:22.790Z,89.80
2022-10-21T21:42:50.550Z,89.70
2022-10-21T21:45:18.362Z,89.60
2022-10-21T21:47:46.284Z,89.70
2022-10-21T21:50:14.075Z,89.60
2022-10-21T21:52:43.552Z,89.60
2022-10-21T21:55:11.511Z,89.70
2022-10-21T21:57:39.302Z,89.60
2022-10-21T22:00:08.359Z,89.30
2022-10-21T22:02:37.319Z,89.50
2022-10-21T22:05:05.760Z,89.90
2022-10-21T22:07:33.881Z,89.80
2022-10-21T22:10:03.027Z,89.60
2022-10-21T22:12:30.785Z,89.40
2022-10-21T22:14:58.558Z,89.30
2022-10-21T22:17:26.378Z,89.40
2022-10-21T22:19:54.178Z,89.20
2022-10-21T22:22:22.314Z,89.20
2022-10-21T22:24:50.318Z,89.30
2022-10-21T22:27:19.508Z,89.30
2022-10-21T22:29:47.285Z,89.30
2022-10-21T22:32:15.055Z,89.40
2022-10-21T22:34:42.835Z,89.30
2022-10-21T22:37:10.630Z,89.30
2022-10-21T22:39:38.497Z,89.30
2022-10-21T22:42:06.320Z,89.30
2022-10-21T22:44:35.444Z,89.30
2022-10-21T22:47:03.547Z,89.20
2022-10-21T22:49:31.323Z,89.20
2022-10-21T22:51:59.081Z,89.30
2022-10-21T22:54:48.021Z,89.50
2022-10-21T22:57:14.682Z,89.40
2022-10-21T22:59:44.273Z,89.20
2022-10-21T23:02:12.676Z,89.00
2022-10-21T23:04:40.455Z,89.10
2022-10-21T23:07:08.294Z,89.00
2022-10-21T23:09:36.289Z,88.90
2022-10-21T23:12:04.115Z,89.00
2022-10-21T23:14:31.928Z,89.10
2022-10-21T23:17:01.054Z,89.10
2022-10-21T23:19:28.934Z,89.10
2022-10-21T23:21:56.702Z,89.00
2022-10-21T23:24:24.502Z,89.60
2022-10-21T23:26:52.327Z,88.80
2022-10-21T23:29:20.173Z,88.80
2022-10-21T23:31:47.920Z,88.70
2022-10-21T23:34:17.057Z,88.60
2022-10-21T23:36:44.853Z,89.00
2022-10-21T23:39:12.875Z,89.20
2022-10-21T23:41:40.649Z,89.70
2022-10-21T23:44:08.422Z,89.70
2022-10-21T23:46:36.338Z,89.60
2022-10-21T23:49:04.153Z,89.40
2022-10-21T23:51:33.750Z,89.40
2022-10-21T23:54:01.625Z,89.50
2022-10-21T23:56:29.453Z,89.60
2022-10-21T23:58:57.236Z,89.60
